createdAt,value
2018-08-27T00:02:04.905Z,73.25
2018-08-27T00:04:33.934Z,74.01
2018-08-27T00:07:03.069Z,74.04
2018-08-27T00:09:32.023Z,75.48
2018-08-27T00:12:01.105Z,75.24
2018-08-27T00:14:30.099Z,75.22
2018-08-27T00:16:59.100Z,74.87
2018-08-27T00:19:28.286Z,74.48
2018-08-27T00:21:57.376Z,73.33
2018-08-27T00:24:26.528Z,74.92
2018-08-27T00:26:55.544Z,73.54
2018-08-27T00:29:24.504Z,73.42
2018-08-27T00:31:53.592Z,72.83
2018-08-27T00:34:22.544Z,73.71
2018-08-27T00:36:51.568Z,72.92
2018-08-27T00:39:20.512Z,71.73
2018-08-27T00:41:49.530Z,73.96
2018-08-27T00:44:18.488Z,74.94
2018-08-27T00:46:47.493Z,75.96
2018-08-27T00:49:16.513Z,75.27
2018-08-27T00:51:45.529Z,75.55
2018-08-27T00:54:14.483Z,75.85
2018-08-27T00:56:43.529Z,76.33
2018-08-27T00:59:12.657Z,75.43
2018-08-27T01:01:41.592Z,74.84
2018-08-27T01:04:10.603Z,75.34
2018-08-27T01:06:39.578Z,75.33
2018-08-27T01:09:08.854Z,74.70
2018-08-27T01:11:38.005Z,75.44
2018-08-27T01:14:07.128Z,74.42
2018-08-27T01:16:36.249Z,74.81
2018-08-27T01:19:05.252Z,76.82
2018-08-27T01:21:34.200Z,77.09
2018-08-27T01:24:03.317Z,77.64
2018-08-27T01:26:32.312Z,76.54
2018-08-27T01:29:01.501Z,76.71
2018-08-27T01:31:30.446Z,76.74
2018-08-27T01:33:59.519Z,77.16
2018-08-27T01:36:28.529Z,77.44
2018-08-27T01:38:57.573Z,77.20
2018-08-27T01:41:26.597Z,77.16
2018-08-27T01:43:55.601Z,77.86
2018-08-27T01:46:24.604Z,78.06
2018-08-27T01:48:53.617Z,77.81
2018-08-27T01:51:22.636Z,76.77
2018-08-27T01:53:51.633Z,76.95
2018-08-27T01:56:20.637Z,77.54
2018-08-27T01:58:50.396Z,76.95
2018-08-27T02:01:21.085Z,77.42
2018-08-27T02:03:50.055Z,75.93
2018-08-27T02:06:19.108Z,76.08
2018-08-27T02:08:48.116Z,77.64
2018-08-27T02:11:17.120Z,76.97
2018-08-27T02:13:46.129Z,77.59
2018-08-27T02:16:15.075Z,78.15
2018-08-27T02:18:44.079Z,79.56
2018-08-27T02:21:13.093Z,79.75
2018-08-27T02:23:42.039Z,80.38
2018-08-27T02:26:11.056Z,79.80
2018-08-27T02:28:39.988Z,79.83
2018-08-27T02:31:08.992Z,80.34
2018-08-27T02:33:38.012Z,81.14
2018-08-27T02:36:07.020Z,79.79
2018-08-27T02:38:36.036Z,80.46
2018-08-27T02:41:05.051Z,79.87
2018-08-27T02:43:34.133Z,79.77
2018-08-27T02:46:03.166Z,79.60
2018-08-27T02:48:32.112Z,82.29
2018-08-27T02:51:01.104Z,82.20
2018-08-27T02:53:30.103Z,80.60
2018-08-27T02:55:59.160Z,80.65
2018-08-27T02:58:28.096Z,79.41
2018-08-27T03:00:57.166Z,79.84
2018-08-27T03:03:26.165Z,80.06
2018-08-27T03:05:55.108Z,81.09
2018-08-27T03:08:24.060Z,80.79
2018-08-27T03:10:52.996Z,80.56
2018-08-27T03:13:22.009Z,81.22
2018-08-27T03:15:51.019Z,80.92
2018-08-27T03:18:20.163Z,79.82
2018-08-27T03:20:49.067Z,80.66
2018-08-27T03:23:18.097Z,81.40
2018-08-27T03:25:47.081Z,80.04
2018-08-27T03:28:16.027Z,80.50
2018-08-27T03:30:45.081Z,79.83
2018-08-27T03:33:14.353Z,79.87
2018-08-27T03:35:43.308Z,80.38
2018-08-27T03:38:12.353Z,79.85
2018-08-27T03:40:41.319Z,80.39
2018-08-27T03:43:10.288Z,81.76
2018-08-27T03:45:39.279Z,81.18
2018-08-27T03:48:09.372Z,81.36
2018-08-27T03:50:38.824Z,80.95
2018-08-27T03:53:07.764Z,81.69
2018-08-27T03:55:36.775Z,83.16
2018-08-27T03:58:06.053Z,85.87
2018-08-27T04:00:35.058Z,88.19
2018-08-27T04:03:04.396Z,89.12
2018-08-27T04:05:33.421Z,90.53
2018-08-27T04:08:02.424Z,89.56
2018-08-27T04:10:31.449Z,90.22
2018-08-27T04:13:00.403Z,89.92
2018-08-27T04:15:29.510Z,89.34
2018-08-27T04:17:58.591Z,89.76
2018-08-27T04:20:27.601Z,89.16
2018-08-27T04:22:56.560Z,88.16
2018-08-27T04:25:25.564Z,86.79
2018-08-27T04:27:54.681Z,86.59
2018-08-27T04:30:23.690Z,85.83
2018-08-27T04:32:52.701Z,84.74
2018-08-27T04:35:21.712Z,85.77
2018-08-27T04:37:50.716Z,86.38
2018-08-27T04:40:19.751Z,85.42
2018-08-27T04:42:48.692Z,84.91
2018-08-27T04:45:17.723Z,85.31
2018-08-27T04:47:46.675Z,85.38
2018-08-27T04:50:15.696Z,85.47
2018-08-27T04:52:44.741Z,84.23
2018-08-27T04:55:13.768Z,85.28
2018-08-27T04:57:42.786Z,84.13
2018-08-27T05:00:16.852Z,83.29
2018-08-27T05:02:45.828Z,83.37
2018-08-27T05:05:14.784Z,82.98
2018-08-27T05:07:43.896Z,82.22
2018-08-27T05:10:12.945Z,83.17
2018-08-27T05:12:41.949Z,81.96
2018-08-27T05:15:10.944Z,80.49
2018-08-27T05:17:39.945Z,79.58
2018-08-27T05:20:09.041Z,80.89
2018-08-27T05:22:38.069Z,79.89
2018-08-27T05:25:07.367Z,80.85
2018-08-27T05:27:36.397Z,80.29
2018-08-27T05:30:05.465Z,79.85
2018-08-27T05:32:34.451Z,79.99
2018-08-27T05:35:03.578Z,80.31
2018-08-27T05:37:32.564Z,79.28
2018-08-27T05:40:01.639Z,79.28
2018-08-27T05:42:30.737Z,79.51
2018-08-27T05:44:59.742Z,78.35
2018-08-27T05:47:28.777Z,77.51
2018-08-27T05:49:57.821Z,77.39
2018-08-27T05:52:26.797Z,78.00
2018-08-27T05:54:55.836Z,77.14
2018-08-27T05:57:24.797Z,77.20
2018-08-27T05:59:53.892Z,76.15
2018-08-27T06:02:22.841Z,75.45
2018-08-27T06:04:51.824Z,76.17
2018-08-27T06:07:20.813Z,76.09
2018-08-27T06:09:49.869Z,76.78
2018-08-27T06:12:18.860Z,77.40
2018-08-27T06:14:47.879Z,76.23
2018-08-27T06:17:17.064Z,74.66
2018-08-27T06:19:45.976Z,77.58
2018-08-27T06:22:15.184Z,80.34
2018-08-27T06:24:44.135Z,80.63
2018-08-27T06:27:13.116Z,83.51
2018-08-27T06:29:42.177Z,83.73
2018-08-27T06:32:11.262Z,84.18
2018-08-27T06:34:40.372Z,84.12
2018-08-27T06:37:09.413Z,82.30
2018-08-27T06:39:38.404Z,81.63
2018-08-27T06:42:07.552Z,78.39
2018-08-27T06:44:36.611Z,77.42
2018-08-27T06:47:05.969Z,78.22
2018-08-27T06:49:34.933Z,75.03
2018-08-27T06:52:03.979Z,71.80
2018-08-27T06:54:32.993Z,69.24
2018-08-27T06:57:01.961Z,70.57
2018-08-27T06:59:31.552Z,67.19
2018-08-27T07:02:00.566Z,69.91
2018-08-27T07:04:29.659Z,68.52
2018-08-27T07:06:58.608Z,66.48
2018-08-27T07:09:27.688Z,66.07
2018-08-27T07:11:56.648Z,66.51
2018-08-27T07:14:25.732Z,65.29
2018-08-27T07:16:54.779Z,65.64
2018-08-27T07:19:23.720Z,64.85
2018-08-27T07:21:52.693Z,62.39
2018-08-27T07:24:21.757Z,63.10
2018-08-27T07:26:50.772Z,63.16
2018-08-27T07:29:19.776Z,63.67
2018-08-27T07:31:48.794Z,62.43
2018-08-27T07:34:17.748Z,62.67
2018-08-27T07:36:46.672Z,63.09
2018-08-27T07:39:15.685Z,64.50
2018-08-27T07:41:44.781Z,64.22
2018-08-27T07:44:13.851Z,63.53
2018-08-27T07:46:42.849Z,62.50
2018-08-27T07:49:11.889Z,62.15
2018-08-27T07:51:41.010Z,61.45
2018-08-27T07:54:10.210Z,62.68
2018-08-27T07:56:39.253Z,62.12
2018-08-27T07:59:08.593Z,58.77
2018-08-27T08:01:37.630Z,58.73
2018-08-27T08:04:06.639Z,59.16
2018-08-27T08:06:35.653Z,60.11
2018-08-27T08:09:06.167Z,59.86
2018-08-27T08:11:35.116Z,61.24
2018-08-27T08:14:04.167Z,58.27
2018-08-27T08:16:33.335Z,58.13
2018-08-27T08:19:02.834Z,57.99
2018-08-27T08:21:31.784Z,58.58
2018-08-27T08:24:00.851Z,57.61
2018-08-27T08:26:29.817Z,58.38
2018-08-27T08:28:58.890Z,60.45
2018-08-27T08:31:28.028Z,58.34
2018-08-27T08:33:56.984Z,58.31
2018-08-27T08:36:25.974Z,57.12
2018-08-27T08:38:54.945Z,56.84
2018-08-27T08:41:23.904Z,57.84
2018-08-27T08:43:52.887Z,56.20
2018-08-27T08:46:21.881Z,57.26
2018-08-27T08:48:50.921Z,55.80
2018-08-27T08:51:19.868Z,55.75
2018-08-27T08:53:48.948Z,55.53
2018-08-27T08:56:17.932Z,54.02
2018-08-27T08:58:46.913Z,53.87
2018-08-27T09:01:15.967Z,55.21
2018-08-27T09:03:45.037Z,52.82
2018-08-27T09:06:14.086Z,54.66
2018-08-27T09:08:43.082Z,53.80
2018-08-27T09:11:12.109Z,54.24
2018-08-27T09:13:41.141Z,55.25
2018-08-27T09:16:10.136Z,56.42
2018-08-27T09:18:39.102Z,54.26
2018-08-27T09:21:08.041Z,54.94
2018-08-27T09:23:37.093Z,51.81
2018-08-27T09:26:06.024Z,53.05
2018-08-27T09:28:34.968Z,51.97
2018-08-27T09:31:04.001Z,52.58
2018-08-27T09:33:32.935Z,53.25
2018-08-27T09:36:01.998Z,52.65
2018-08-27T09:38:31.064Z,52.74
2018-08-27T09:41:00.190Z,51.93
2018-08-27T09:43:29.164Z,54.33
2018-08-27T09:45:58.164Z,52.17
2018-08-27T09:48:27.103Z,54.25
2018-08-27T09:50:56.041Z,50.83
2018-08-27T09:53:25.069Z,51.18
2018-08-27T09:55:54.017Z,51.66
2018-08-27T09:58:23.051Z,51.82
2018-08-27T10:00:57.134Z,50.73
2018-08-27T10:03:26.188Z,52.50
2018-08-27T10:05:55.152Z,51.57
2018-08-27T10:08:24.194Z,51.52
2018-08-27T10:10:53.208Z,51.06
2018-08-27T10:13:22.290Z,51.07
2018-08-27T10:15:51.335Z,49.38
2018-08-27T10:18:20.354Z,49.51
2018-08-27T10:20:49.440Z,48.82
2018-08-27T10:23:18.456Z,48.17
2018-08-27T10:25:47.426Z,47.73
2018-08-27T10:28:16.424Z,48.02
2018-08-27T10:30:45.381Z,46.75
2018-08-27T10:33:14.348Z,46.00
2018-08-27T10:35:43.372Z,45.44
2018-08-27T10:38:12.534Z,44.52
2018-08-27T10:40:41.590Z,43.92
2018-08-27T10:43:10.588Z,42.79
2018-08-27T10:45:39.638Z,41.76
2018-08-27T10:48:08.645Z,43.40
2018-08-27T10:50:37.608Z,42.00
2018-08-27T10:53:06.969Z,43.28
2018-08-27T10:55:36.004Z,40.92
2018-08-27T10:58:04.956Z,41.28
2018-08-27T11:00:33.916Z,40.12
2018-08-27T11:03:02.881Z,40.35
2018-08-27T11:05:31.858Z,37.99
2018-08-27T11:08:00.934Z,36.61
2018-08-27T11:10:29.985Z,36.70
2018-08-27T11:12:59.010Z,37.25
2018-08-27T11:15:28.077Z,36.48
2018-08-27T11:17:57.035Z,35.74
2018-08-27T11:20:26.135Z,34.64
2018-08-27T11:22:54.991Z,35.70
2018-08-27T11:25:23.948Z,35.09
2018-08-27T11:27:52.998Z,33.54
2018-08-27T11:30:22.147Z,33.00
2018-08-27T11:32:51.137Z,32.85
2018-08-27T11:35:20.172Z,31.96
2018-08-27T11:37:49.197Z,31.83
2018-08-27T11:40:18.158Z,33.04
2018-08-27T11:42:47.131Z,33.01
2018-08-27T11:45:16.083Z,30.38
2018-08-27T11:47:45.148Z,30.58
2018-08-27T11:50:14.185Z,32.48
2018-08-27T11:52:43.164Z,31.86
2018-08-27T11:55:12.225Z,33.00
2018-08-27T11:57:41.309Z,34.21
2018-08-27T12:00:15.553Z,35.33
2018-08-27T12:02:44.585Z,37.96
2018-08-27T12:05:13.682Z,37.86
2018-08-27T12:07:42.731Z,36.95
2018-08-27T12:10:11.693Z,35.10
2018-08-27T12:12:40.668Z,36.89
2018-08-27T12:15:09.624Z,38.60
2018-08-27T12:17:38.640Z,39.36
2018-08-27T12:20:07.652Z,40.04
2018-08-27T12:22:36.726Z,36.35
2018-08-27T12:25:06.081Z,35.25
2018-08-27T12:27:35.052Z,34.29
2018-08-27T12:30:04.081Z,35.12
2018-08-27T12:32:33.151Z,33.18
2018-08-27T12:35:02.116Z,32.52
2018-08-27T12:37:31.065Z,31.70
2018-08-27T12:40:00.172Z,31.91
2018-08-27T12:42:29.171Z,30.90
2018-08-27T12:44:58.149Z,31.28
2018-08-27T12:47:27.222Z,30.34
2018-08-27T12:49:56.234Z,30.26
2018-08-27T12:52:25.297Z,29.76
2018-08-27T12:54:54.517Z,30.85
2018-08-27T12:57:23.848Z,32.01
2018-08-27T12:59:53.123Z,30.49
2018-08-27T13:02:22.406Z,30.26
2018-08-27T13:04:51.949Z,30.27
2018-08-27T13:07:21.254Z,31.20
2018-08-27T13:09:50.563Z,33.82
2018-08-27T13:12:19.865Z,33.36
2018-08-27T13:14:49.265Z,34.79
2018-08-27T13:17:18.533Z,38.85
2018-08-27T13:19:47.804Z,39.97
2018-08-27T13:22:17.093Z,40.92
2018-08-27T13:24:46.393Z,41.62
2018-08-27T13:27:15.783Z,44.79
2018-08-27T13:29:45.070Z,44.58
2018-08-27T13:32:14.378Z,43.77
2018-08-27T13:34:43.693Z,44.30
2018-08-27T13:37:13.105Z,44.55
2018-08-27T13:39:42.372Z,44.93
2018-08-27T13:42:11.647Z,45.53
2018-08-27T13:44:41.002Z,45.81
2018-08-27T13:47:10.298Z,46.29
2018-08-27T13:49:39.583Z,46.40
2018-08-27T13:52:09.104Z,45.88
2018-08-27T13:54:38.368Z,47.00
2018-08-27T13:57:07.667Z,46.98
2018-08-27T13:59:36.922Z,46.61
2018-08-27T14:02:06.256Z,45.12
2018-08-27T14:04:35.253Z,45.85
2018-08-27T14:07:04.176Z,46.98
2018-08-27T14:09:33.187Z,47.57
2018-08-27T14:12:02.149Z,45.04
2018-08-27T14:14:31.189Z,44.78
2018-08-27T14:17:00.264Z,45.74
2018-08-27T14:19:29.462Z,47.58
2018-08-27T14:21:58.518Z,47.11
2018-08-27T14:24:27.603Z,46.35
2018-08-27T14:26:56.592Z,48.40
2018-08-27T14:29:25.898Z,48.76
2018-08-27T14:31:54.841Z,47.95
2018-08-27T14:34:23.913Z,49.04
2018-08-27T14:36:52.989Z,52.07
2018-08-27T14:39:22.005Z,54.24
2018-08-27T14:41:50.972Z,55.01
2018-08-27T14:44:20.272Z,56.13
2018-08-27T14:46:49.230Z,58.50
2018-08-27T14:49:18.190Z,58.94
2018-08-27T14:51:47.393Z,60.29
2018-08-27T14:54:16.765Z,62.17
2018-08-27T14:56:46.466Z,62.13
2018-08-27T14:59:15.796Z,63.76
2018-08-27T15:01:47.954Z,62.70
2018-08-27T15:04:18.620Z,62.50
2018-08-27T15:06:47.919Z,62.17
2018-08-27T15:09:17.108Z,61.70
2018-08-27T15:11:46.207Z,61.24
2018-08-27T15:14:15.528Z,61.47
2018-08-27T15:16:44.800Z,60.18
2018-08-27T15:19:13.957Z,60.09
2018-08-27T15:21:42.966Z,62.01
2018-08-27T15:24:11.953Z,61.62
2018-08-27T15:26:40.957Z,62.49
2018-08-27T15:29:10.041Z,64.35
2018-08-27T15:31:39.151Z,64.42
2018-08-27T15:34:08.415Z,64.17
2018-08-27T15:36:37.587Z,64.95
2018-08-27T15:39:12.952Z,65.28
2018-08-27T15:41:41.918Z,64.51
2018-08-27T15:44:10.933Z,64.89
2018-08-27T15:46:42.554Z,65.39
2018-08-27T15:49:12.114Z,65.57
2018-08-27T15:51:41.590Z,66.98
2018-08-27T15:54:11.766Z,65.92
2018-08-27T15:56:41.496Z,64.97
2018-08-27T15:59:10.616Z,64.85
2018-08-27T16:01:39.637Z,64.67
2018-08-27T16:04:08.749Z,64.30
2018-08-27T16:06:37.792Z,64.34
2018-08-27T16:09:07.721Z,64.33
2018-08-27T16:11:36.878Z,63.71
2018-08-27T16:14:05.965Z,62.86
2018-08-27T16:16:35.004Z,62.57
2018-08-27T16:19:04.025Z,62.26
2018-08-27T16:21:32.997Z,62.55
2018-08-27T16:24:02.033Z,62.23
2018-08-27T16:26:31.086Z,62.95
2018-08-27T16:29:00.039Z,63.35
2018-08-27T16:31:28.993Z,63.20
2018-08-27T16:33:58.014Z,63.27
2018-08-27T16:36:27.017Z,62.94
2018-08-27T16:38:56.098Z,64.53
2018-08-27T16:41:25.135Z,64.04
2018-08-27T16:43:54.230Z,66.41
2018-08-27T16:46:23.240Z,66.03
2018-08-27T16:48:52.232Z,68.83
2018-08-27T16:51:21.233Z,73.95
2018-08-27T16:53:50.472Z,79.49
2018-08-27T16:56:19.569Z,82.14
2018-08-27T16:58:48.520Z,84.65
2018-08-27T17:01:17.625Z,87.87
2018-08-27T17:03:46.628Z,93.12
2018-08-27T17:06:15.689Z,93.39
2018-08-27T17:08:44.783Z,94.63
2018-08-27T17:11:13.764Z,95.98
2018-08-27T17:13:42.833Z,96.26
2018-08-27T17:16:11.870Z,99.31
2018-08-27T17:18:41.292Z,98.12
2018-08-27T17:21:10.276Z,99.28
2018-08-27T17:23:39.297Z,100.00
2018-08-27T17:26:08.276Z,100.00
2018-08-27T17:28:37.249Z,100.00
2018-08-27T17:31:06.365Z,100.00
2018-08-27T17:33:35.424Z,100.00
2018-08-27T17:36:04.506Z,100.00
2018-08-27T17:38:33.542Z,100.00
2018-08-27T17:41:05.505Z,100.00
2018-08-27T17:43:34.502Z,100.00
2018-08-27T17:46:03.526Z,98.34
2018-08-27T17:48:32.572Z,100.00
2018-08-27T17:51:01.632Z,100.00
2018-08-27T17:53:30.646Z,98.74
2018-08-27T17:55:59.663Z,96.77
2018-08-27T17:58:28.833Z,97.76
2018-08-27T18:00:57.930Z,96.69
2018-08-27T18:03:27.025Z,97.18
2018-08-27T18:05:56.067Z,98.00
2018-08-27T18:08:25.072Z,96.63
2018-08-27T18:10:54.025Z,96.36
2018-08-27T18:13:23.068Z,97.31
2018-08-27T18:15:52.043Z,97.34
2018-08-27T18:18:21.144Z,97.58
2018-08-27T18:20:50.217Z,97.87
2018-08-27T18:23:19.213Z,98.41
2018-08-27T18:25:48.192Z,97.82
2018-08-27T18:28:17.154Z,96.86
2018-08-27T18:30:46.189Z,96.66
2018-08-27T18:33:15.278Z,97.30
2018-08-27T18:35:44.462Z,97.41
2018-08-27T18:38:13.481Z,98.25
2018-08-27T18:40:42.504Z,99.49
2018-08-27T18:43:11.495Z,99.79
2018-08-27T18:45:40.597Z,98.95
2018-08-27T18:48:09.589Z,99.29
2018-08-27T18:50:38.672Z,99.84
2018-08-27T18:53:07.841Z,99.40
2018-08-27T18:55:36.855Z,98.86
2018-08-27T18:58:05.955Z,98.17
2018-08-27T19:00:35.118Z,97.58
2018-08-27T19:03:04.104Z,97.97
2018-08-27T19:05:33.088Z,98.92
2018-08-27T19:08:02.076Z,99.86
2018-08-27T19:10:31.144Z,100.00
2018-08-27T19:13:00.248Z,100.00
2018-08-27T19:15:29.265Z,100.00
2018-08-27T19:17:58.309Z,100.00
2018-08-27T19:20:27.272Z,100.00
2018-08-27T19:22:56.259Z,100.00
2018-08-27T19:25:25.240Z,100.00
2018-08-27T19:27:54.294Z,100.00
2018-08-27T19:30:23.426Z,100.00
2018-08-27T19:32:52.504Z,100.00
2018-08-27T19:35:21.559Z,100.00
2018-08-27T19:37:50.613Z,100.00
2018-08-27T19:40:19.693Z,100.00
2018-08-27T19:42:48.673Z,100.00
2018-08-27T19:45:17.857Z,100.00
2018-08-27T19:47:46.820Z,100.00
2018-08-27T19:50:15.926Z,100.00
2018-08-27T19:52:44.977Z,100.00
2018-08-27T19:55:14.019Z,100.00
2018-08-27T19:57:43.044Z,100.00
2018-08-27T20:00:12.024Z,100.00
2018-08-27T20:02:41.217Z,100.00
2018-08-27T20:05:10.477Z,100.00
2018-08-27T20:07:39.496Z,100.00
2018-08-27T20:10:08.550Z,100.00
2018-08-27T20:12:37.511Z,100.00
2018-08-27T20:15:06.537Z,100.00
2018-08-27T20:17:35.562Z,100.00
2018-08-27T20:20:04.584Z,100.00
2018-08-27T20:22:33.613Z,100.00
2018-08-27T20:25:02.559Z,100.00
2018-08-27T20:27:31.596Z,100.00
2018-08-27T20:30:00.554Z,100.00
2018-08-27T20:32:30.321Z,100.00
2018-08-27T20:34:59.288Z,100.00
2018-08-27T20:37:28.425Z,100.00
2018-08-27T20:39:57.389Z,100.00
2018-08-27T20:42:26.388Z,100.00
2018-08-27T20:44:55.361Z,100.00
2018-08-27T20:47:24.317Z,100.00
2018-08-27T20:49:53.364Z,100.00
2018-08-27T20:52:22.385Z,100.00
2018-08-27T20:54:51.460Z,100.00
2018-08-27T20:57:20.501Z,100.00
2018-08-27T20:59:49.501Z,100.00
2018-08-27T21:02:18.538Z,100.00
2018-08-27T21:04:47.561Z,100.00
2018-08-27T21:07:16.553Z,100.00
2018-08-27T21:09:45.542Z,100.00
2018-08-27T21:12:14.632Z,100.00
2018-08-27T21:15:00.685Z,100.00
2018-08-27T21:17:29.736Z,100.00
2018-08-27T21:19:58.684Z,100.00
2018-08-27T21:22:27.672Z,100.00
2018-08-27T21:24:56.703Z,100.00
2018-08-27T21:27:25.670Z,100.00
2018-08-27T21:29:55.444Z,100.00
2018-08-27T21:32:24.607Z,100.00
2018-08-27T21:34:53.917Z,100.00
2018-08-27T21:37:23.152Z,100.00
2018-08-27T21:39:52.397Z,100.00
2018-08-27T21:42:21.420Z,100.00
2018-08-27T21:44:50.450Z,100.00
2018-08-27T21:47:19.473Z,100.00
2018-08-27T21:49:48.554Z,100.00
2018-08-27T21:52:17.656Z,100.00
2018-08-27T21:54:46.689Z,100.00
2018-08-27T21:57:15.694Z,100.00
2018-08-27T21:59:44.671Z,100.00
2018-08-27T22:02:18.574Z,100.00
2018-08-27T22:04:47.576Z,100.00
2018-08-27T22:07:16.622Z,100.00
2018-08-27T22:09:45.686Z,100.00
2018-08-27T22:12:14.670Z,100.00
2018-08-27T22:14:43.639Z,100.00
2018-08-27T22:17:12.651Z,100.00
2018-08-27T22:19:41.709Z,100.00
2018-08-27T22:22:10.806Z,100.00
2018-08-27T22:24:39.860Z,100.00
2018-08-27T22:27:08.864Z,100.00
2018-08-27T22:29:37.832Z,100.00
2018-08-27T22:32:06.844Z,100.00
2018-08-27T22:34:35.872Z,100.00
2018-08-27T22:37:04.886Z,100.00
2018-08-27T22:39:34.545Z,100.00
2018-08-27T22:42:03.632Z,100.00
2018-08-27T22:44:32.684Z,100.00
2018-08-27T22:47:01.647Z,100.00
2018-08-27T22:49:30.592Z,100.00
2018-08-27T22:52:00.132Z,100.00
2018-08-27T22:54:29.320Z,100.00
2018-08-27T22:56:58.346Z,100.00
2018-08-27T22:59:27.300Z,100.00
2018-08-27T23:01:56.303Z,100.00
2018-08-27T23:04:30.216Z,100.00
2018-08-27T23:06:59.237Z,100.00
2018-08-27T23:09:28.221Z,100.00
2018-08-27T23:11:57.188Z,100.00
2018-08-27T23:14:26.285Z,100.00
2018-08-27T23:16:55.260Z,100.00
2018-08-27T23:19:24.220Z,100.00
2018-08-27T23:21:53.236Z,100.00
2018-08-27T23:24:22.204Z,100.00
2018-08-27T23:26:51.169Z,100.00
2018-08-27T23:29:20.119Z,100.00
2018-08-27T23:31:49.304Z,100.00
2018-08-27T23:34:18.360Z,100.00
2018-08-27T23:36:48.231Z,100.00
2018-08-27T23:39:17.293Z,100.00
2018-08-27T23:41:46.334Z,100.00
2018-08-27T23:44:15.304Z,100.00
2018-08-27T23:46:44.333Z,100.00
2018-08-27T23:49:13.466Z,100.00
2018-08-27T23:51:42.428Z,100.00
2018-08-27T23:54:11.442Z,100.00
2018-08-27T23:56:40.480Z,100.00
2018-08-27T23:59:09.489Z,100.00
